Weather at Brisbane International Airport

Public forecast

Using degrees Celsius for public forecast. Weather courtesy of forecast.io.

Current aviation weather report (METAR) for Brisbane International Airport

Retrieved 2022/08/13 14:30 UTC (24 minutes ago):

YBBN 131430Z 22004KT 0500 R19L/P2000N R19/P2000N FG NSC 10/09 Q1016

Aviation forecast (TAF) for Brisbane International Airport

Retrieved 2022/08/13 15:45 UTC (0 seconds ago):

TAF YBBN 131410Z 1315/1418 22007KT 9999 FEW005 FM132300 27013KT CAVOK FM141200 25006KT CAVOK PROB30 1316/1322 0500 FG BKN001